Hite, Utah
Current Conditions -  °F | °C
As of 9:15 AM on Sunday 25 Jan 2015 (Local Time) from KBDG Reporting Station
Clear Clear  
Wind Chill: 38°   Ceiling: Unl
Heat Index: 42°   Visibility: 10mi
Dew Point: 24°   Wind: 6mph
Humidity: 50%   Direction: 280°W
Pressure: 30.4"   Gusts: NA
Location:  37.6208°N, 109.479°W
Report Text: KBDG 251615Z AUTO 28005KT 10SM CLR 05/M04 A3040 RMK AO1 T00541043
Loading
Personal Weather Stations






























Interactive Weather Map New forecast layout! Learn more

10-Day Weather Forecast

Advertisements
Track Severe Weather on mobile